Time;durP1;ratioP1;P1;durP2;ratioP2;P2;SDS_P1;SDS_P2;PMS_P1;PMS_P2;Temp;Humidity;BMP_temperature;BMP_pressure;BME280_temperature;BME280_humidity;BME280_pressure;Samples;Min_cycle;Max_cycle;Signal;HPM_P1;HPM_P2
2022/05/04 00:00:14;;;;;;;;;;;;;;;;;;5013970;28;866;-73
2022/05/04 00:02:41;;;;;;;;;;;;;;;;;;5013602;28;1394;-73
2022/05/04 00:05:08;;;;;;;;;;;;;;;;;;5014587;28;1295;-74
2022/05/04 00:07:36;;;;;;;;;;;;;;;;;;5014600;28;1006;-74
2022/05/04 00:10:02;;;;;;;;;;;;;;;;;;5013950;28;1151;-72
2022/05/04 00:12:29;;;;;;;;;;;;;;;;;;5013456;28;1973;-73
2022/05/04 00:14:55;;;;;;;;;;;;;;;;;;5013346;28;1324;-73
2022/05/04 00:17:21;;;;;;;;;;;;;;;;;;5013245;28;979;-73
2022/05/04 00:19:47;;;;;;;;;;;;;;;;;;5013602;28;1131;-74
2022/05/04 00:22:16;;;;;;;;;;;;;;;;;;5013041;28;850;-72
2022/05/04 00:24:44;;;;;;;;;;;;;;;;;;5013040;28;1408;-72
2022/05/04 00:27:10;;;;;;;;;;;;;;;;;;5012125;28;1000;-72
2022/05/04 00:29:37;;;;;;;;;;;;;;;;;;5011905;28;1341;-73
2022/05/04 00:32:03;;;;;;;;;;;;;;;;;;5011756;28;1918;-73
2022/05/04 00:34:30;;;;;;;;;;;;;;;;;;5011701;28;1339;-73
2022/05/04 00:36:59;;;;;;;;;;;;;;;;;;5011803;28;1118;-73
2022/05/04 00:39:25;;;;;;;;;;;;;;;;;;5011867;28;1271;-75
2022/05/04 00:41:53;;;;;;;;;;;;;;;;;;5012870;28;906;-73
2022/05/04 00:44:19;;;;;;;;;;;;;;;;;;5011359;28;1431;-73
2022/05/04 00:46:45;;;;;;;;;;;;;;;;;;5012838;28;1345;-73
2022/05/04 00:49:11;;;;;;;;;;;;;;;;;;5013040;28;1075;-73
2022/05/04 00:51:37;;;;;;;;;;;;;;;;;;5012881;28;1916;-74
2022/05/04 00:54:04;;;;;;;;;;;;;;;;;;5011989;28;1112;-74
2022/05/04 00:56:30;;;;;;;;;;;;;;;;;;5012864;28;1314;-74
2022/05/04 00:58:57;;;;;;;;;;;;;;;;;;5013249;28;799;-74
2022/05/04 01:01:24;;;;;;;;;;;;;;;;;;5012712;28;795;-74
2022/05/04 01:03:50;;;;;;;;;;;;;;;;;;5012552;28;788;-74
2022/05/04 01:06:16;;;;;;;;;;;;;;;;;;5010653;28;1389;-74
2022/05/04 01:08:42;;;;;;;;;;;;;;;;;;5012261;28;1354;-74
2022/05/04 01:11:09;;;;;;;;;;;;;;;;;;5012108;28;2005;-73
2022/05/04 01:13:35;;;;;;;;;;;;;;;;;;5015288;28;1559;-73
2022/05/04 01:16:02;;;;;;;;;;;;;;;;;;5012539;28;1503;-72
2022/05/04 01:18:29;;;;;;;;;;;;;;;;;;5012323;28;1048;-73
2022/05/04 01:20:55;;;;;;;;;;;;;;;;;;5012719;28;799;-73
2022/05/04 01:23:22;;;;;;;;;;;;;;;;;;5012711;28;1072;-73
2022/05/04 01:25:48;;;;;;;;;;;;;;;;;;5012576;28;1420;-73
2022/05/04 01:28:15;;;;;;;;;;;;;;;;;;5010544;28;1427;-73
2022/05/04 01:30:41;;;;;;;;;;;;;;;;;;5012800;28;1060;-73
2022/05/04 01:33:07;;;;;;;;;;;;;;;;;;5012821;28;1919;-73
2022/05/04 01:35:33;;;;;;;;;;;;;;;;;;5013887;28;2077;-72
2022/05/04 01:38:00;;;;;;;;;;;;;;;;;;5029508;28;1764;-75
2022/05/04 01:40:27;;;;;;;;;;;;;;;;;;5027522;28;2050;-74
2022/05/04 01:42:53;;;;;;;;;;;;;;;;;;5029411;28;1775;-75
2022/05/04 01:45:20;;;;;;;;;;;;;;;;;;5032652;28;1404;-74
2022/05/04 01:47:49;;;;;;;;;;;;;;;;;;5033010;28;1119;-75
2022/05/04 01:50:16;;;;;;;;;;;;;;;;;;5032424;28;956;-75
2022/05/04 01:52:42;;;;;;;;;;;;;;;;;;5032124;28;1914;-75
2022/05/04 01:55:08;;;;;;;;;;;;;;;;;;5034879;28;1388;-74
2022/05/04 01:57:36;;;;;;;;;;;;;;;;;;5040425;28;1114;-74
2022/05/04 02:00:03;;;;;;;;;;;;;;;;;;5036459;28;886;-74
2022/05/04 02:02:29;;;;;;;;;;;;;;;;;;5032206;28;802;-75
2022/05/04 02:04:55;;;;;;;;;;;;;;;;;;5030839;28;1354;-75
2022/05/04 02:07:22;;;;;;;;;;;;;;;;;;5057312;23;2095;-69
2022/05/04 02:09:49;;;;;;;;;;;;;;;;;;5049062;28;1540;-69
2022/05/04 02:12:15;;;;;;;;;;;;;;;;;;5050172;28;1918;-70
2022/05/04 02:14:42;;;;;;;;;;;;;;;;;;5050492;28;1072;-68
2022/05/04 02:17:08;;;;;;;;;;;;;;;;;;5034951;28;1369;-70
2022/05/04 02:19:35;;;;;;;;;;;;;;;;;;5030952;28;861;-71
2022/05/04 02:22:01;;;;;;;;;;;;;;;;;;5030852;28;1071;-70
2022/05/04 02:24:27;;;;;;;;;;;;;;;;;;5030707;28;869;-70
2022/05/04 02:26:53;;;;;;;;;;;;;;;;;;5027112;28;2127;-70
2022/05/04 02:29:19;;;;;;;;;;;;;;;;;;5024285;28;1804;-70
2022/05/04 02:31:47;;;;;;;;;;;;;;;;;;5030329;28;1998;-70
2022/05/04 02:34:13;;;;;;;;;;;;;;;;;;5030351;28;1055;-69
2022/05/04 02:39:23;;;;;;;;;;;;;;;;;;5030513;28;965;-70
2022/05/04 02:41:51;;;;;;;;;;;;;;;;;;5030118;28;1119;-70
2022/05/04 02:44:18;;;;;;;;;;;;;;;;;;5030448;28;1080;-70
2022/05/04 02:46:44;;;;;;;;;;;;;;;;;;5030026;28;1278;-68
2022/05/04 02:49:11;;;;;;;;;;;;;;;;;;5030128;28;969;-70
2022/05/04 02:51:38;;;;;;;;;;;;;;;;;;5033944;28;1983;-70
2022/05/04 02:54:04;;;;;;;;;;;;;;;;;;5034261;28;850;-70
2022/05/04 02:56:30;;;;;;;;;;;;;;;;;;5034173;28;1273;-70
2022/05/04 02:58:56;;;;;;;;;;;;;;;;;;5034077;28;1072;-70
2022/05/04 03:04:07;;;;;;;;;;;;;;;;;;5034833;28;892;-70
2022/05/04 03:06:35;;;;;;;;;;;;;;;;;;5034196;28;1413;-70
2022/05/04 03:09:02;;;;;;;;;;;;;;;;;;5033997;28;946;-70
2022/05/04 03:14:11;;;;;;;;;;;;;;;;;;5034007;28;1012;-70
2022/05/04 03:16:38;;;;;;;;;;;;;;;;;;5033459;28;1511;-70
2022/05/04 03:19:05;;;;;;;;;;;;;;;;;;5033687;28;1553;-70
2022/05/04 03:21:31;;;;;;;;;;;;;;;;;;5033791;28;946;-70
2022/05/04 03:23:58;;;;;;;;;;;;;;;;;;5033439;28;1112;-70
2022/05/04 03:26:25;;;;;;;;;;;;;;;;;;5033723;28;1266;-70
2022/05/04 03:28:51;;;;;;;;;;;;;;;;;;5033676;28;1025;-70
2022/05/04 03:31:17;;;;;;;;;;;;;;;;;;5033888;28;870;-69
2022/05/04 03:33:44;;;;;;;;;;;;;;;;;;5033555;28;2027;-71
2022/05/04 03:36:10;;;;;;;;;;;;;;;;;;5033460;28;1301;-71
2022/05/04 03:38:36;;;;;;;;;;;;;;;;;;5033621;28;1124;-70
2022/05/04 03:41:04;;;;;;;;;;;;;;;;;;5033569;28;755;-71
2022/05/04 03:43:30;;;;;;;;;;;;;;;;;;5033757;28;989;-71
2022/05/04 03:45:56;;;;;;;;;;;;;;;;;;5032087;28;1403;-70
2022/05/04 03:48:22;;;;;;;;;;;;;;;;;;5033630;28;1099;-71
2022/05/04 03:50:49;;;;;;;;;;;;;;;;;;5036174;28;1305;-71
2022/05/04 03:53:15;;;;;;;;;;;;;;;;;;5037253;28;1922;-71
2022/05/04 03:55:41;;;;;;;;;;;;;;;;;;5033967;28;1389;-70
2022/05/04 03:58:08;;;;;;;;;;;;;;;;;;5033096;28;1004;-70
2022/05/04 04:00:35;;;;;;;;;;;;;;;;;;5032892;28;1055;-71
2022/05/04 04:03:01;;;;;;;;;;;;;;;;;;5030781;28;1760;-71
2022/05/04 04:05:28;;;;;;;;;;;;;;;;;;5033121;28;1263;-71
2022/05/04 04:07:54;;;;;;;;;;;;;;;;;;5032956;28;953;-70
2022/05/04 04:10:20;;;;;;;;;;;;;;;;;;5033077;28;1080;-70
2022/05/04 04:12:47;;;;;;;;;;;;;;;;;;5032742;28;1910;-70
2022/05/04 04:15:14;;;;;;;;;;;;;;;;;;5033060;28;699;-70
2022/05/04 04:17:40;;;;;;;;;;;;;;;;;;5032566;28;1349;-70
2022/05/04 04:22:52;;;;;;;;;;;;;;;;;;5030014;28;1920;-70
2022/05/04 04:25:18;;;;;;;;;;;;;;;;;;5032609;28;1439;-71
2022/05/04 04:27:44;;;;;;;;;;;;;;;;;;5031130;28;1458;-70
2022/05/04 04:30:11;;;;;;;;;;;;;;;;;;5031995;28;1416;-70
2022/05/04 04:32:38;;;;;;;;;;;;;;;;;;5031609;28;1892;-70
2022/05/04 04:35:05;;;;;;;;;;;;;;;;;;5032201;28;1142;-70
2022/05/04 04:37:31;;;;;;;;;;;;;;;;;;5031519;28;1455;-70
2022/05/04 04:39:57;;;;;;;;;;;;;;;;;;5032642;28;1189;-70
2022/05/04 04:42:24;;;;;;;;;;;;;;;;;;5031427;28;1388;-69
2022/05/04 04:44:50;;;;;;;;;;;;;;;;;;5030133;28;1383;-70
2022/05/04 04:47:16;;;;;;;;;;;;;;;;;;5031186;28;1356;-70
2022/05/04 04:49:43;;;;;;;;;;;;;;;;;;5031246;28;1447;-70
2022/05/04 04:52:10;;;;;;;;;;;;;;;;;;5029294;28;1926;-70
2022/05/04 04:54:36;;;;;;;;;;;;;;;;;;5032334;28;1111;-69
2022/05/04 04:57:02;;;;;;;;;;;;;;;;;;5031995;28;1297;-70
2022/05/04 04:59:28;;;;;;;;;;;;;;;;;;5032254;28;1124;-70
2022/05/04 05:01:54;;;;;;;;;;;;;;;;;;5032112;28;1068;-71
2022/05/04 05:04:20;;;;;;;;;;;;;;;;;;5031025;28;1278;-70
2022/05/04 05:06:48;;;;;;;;;;;;;;;;;;5031652;28;1384;-70
2022/05/04 05:09:14;;;;;;;;;;;;;;;;;;5031908;28;919;-69
2022/05/04 05:11:40;;;;;;;;;;;;;;;;;;5031541;28;1109;-70
2022/05/04 05:16:50;;;;;;;;;;;;;;;;;;5030217;28;1355;-70
2022/05/04 05:19:17;;;;;;;;;;;;;;;;;;5031776;28;1092;-69
2022/05/04 05:21:43;;;;;;;;;;;;;;;;;;5030873;28;1538;-70
2022/05/04 05:24:10;;;;;;;;;;;;;;;;;;5028297;28;1347;-70
2022/05/04 05:26:37;;;;;;;;;;;;;;;;;;5029127;28;1508;-70
2022/05/04 05:29:03;;;;;;;;;;;;;;;;;;5029309;28;1268;-70
2022/05/04 05:31:29;;;;;;;;;;;;;;;;;;5022680;28;1294;-70
2022/05/04 05:33:55;;;;;;;;;;;;;;;;;;5017264;28;1994;-71
2022/05/04 05:36:21;;;;;;;;;;;;;;;;;;5030827;28;1326;-70
2022/05/04 05:38:47;;;;;;;;;;;;;;;;;;5029138;28;1343;-71
2022/05/04 05:41:15;;;;;;;;;;;;;;;;;;5017172;28;1301;-71
2022/05/04 05:43:41;;;;;;;;;;;;;;;;;;5028752;28;1355;-69
2022/05/04 05:46:07;;;;;;;;;;;;;;;;;;5028879;28;1506;-70
2022/05/04 05:48:33;;;;;;;;;;;;;;;;;;5029084;28;1432;-70
2022/05/04 05:51:04;;;;;;;;;;;;;;;;;;5028766;28;1446;-69
2022/05/04 05:53:30;;;;;;;;;;;;;;;;;;5028562;28;1918;-70
2022/05/04 05:55:56;;;;;;;;;;;;;;;;;;5028496;28;1482;-68
2022/05/04 05:58:23;;;;;;;;;;;;;;;;;;5030312;28;1341;-70
2022/05/04 06:00:50;;;;;;;;;;;;;;;;;;5030557;28;1259;-71
2022/05/04 06:03:17;;;;;;;;;;;;;;;;;;5024419;28;1216;-71
2022/05/04 06:05:43;;;;;;;;;;;;;;;;;;5028765;28;1604;-70
2022/05/04 06:08:10;;;;;;;;;;;;;;;;;;5030046;28;1121;-71
2022/05/04 06:10:37;;;;;;;;;;;;;;;;;;5030481;28;1439;-71
2022/05/04 06:13:03;;;;;;;;;;;;;;;;;;5030200;28;1914;-71
2022/05/04 06:15:30;;;;;;;;;;;;;;;;;;5029360;28;1427;-68
2022/05/04 06:17:57;;;;;;;;;;;;;;;;;;5030276;28;952;-71
2022/05/04 06:20:23;;;;;;;;;;;;;;;;;;5030527;28;936;-71
2022/05/04 06:22:49;;;;;;;;;;;;;;;;;;5036587;28;1428;-71
2022/05/04 06:25:16;;;;;;;;;;;;;;;;;;5037523;28;1072;-71
2022/05/04 06:27:42;;;;;;;;;;;;;;;;;;5030119;28;1367;-71
2022/05/04 06:35:38;;;;;;;;;;;;;;;;;;5027943;28;1514;-71
2022/05/04 06:38:04;;;;;;;;;;;;;;;;;;5028079;28;1348;-71
2022/05/04 06:40:30;;;;;;;;;;;;;;;;;;5029998;28;1084;-71
2022/05/04 06:42:57;;;;;;;;;;;;;;;;;;5026120;28;1483;-71
2022/05/04 06:45:23;;;;;;;;;;;;;;;;;;5028829;28;1401;-71
2022/05/04 06:47:49;;;;;;;;;;;;;;;;;;5027286;28;1380;-69
2022/05/04 06:50:17;;;;;;;;;;;;;;;;;;5029417;28;1348;-68
2022/05/04 06:52:43;;;;;;;;;;;;;;;;;;5035267;28;1917;-70
2022/05/04 06:55:09;;;;;;;;;;;;;;;;;;5030503;28;1133;-71
2022/05/04 06:57:36;;;;;;;;;;;;;;;;;;5029887;28;1253;-71
2022/05/04 07:00:04;;;;;;;;;;;;;;;;;;5026364;28;1460;-71
2022/05/04 07:02:30;;;;;;;;;;;;;;;;;;5026173;28;1166;-71
2022/05/04 07:04:57;;;;;;;;;;;;;;;;;;5029431;28;1407;-71
2022/05/04 07:07:24;;;;;;;;;;;;;;;;;;5028564;28;1438;-68
2022/05/04 07:09:50;;;;;;;;;;;;;;;;;;5029924;28;1126;-70
2022/05/04 07:12:16;;;;;;;;;;;;;;;;;;5026566;28;1545;-70
2022/05/04 07:14:43;;;;;;;;;;;;;;;;;;5028980;28;1914;-71
2022/05/04 07:17:09;;;;;;;;;;;;;;;;;;5031196;28;1411;-70
2022/05/04 07:19:35;;;;;;;;;;;;;;;;;;5030675;28;1360;-71
2022/05/04 07:22:01;;;;;;;;;;;;;;;;;;5029256;28;1296;-71
2022/05/04 07:24:29;;;;;;;;;;;;;;;;;;5028957;28;1388;-71
2022/05/04 07:26:55;;;;;;;;;;;;;;;;;;5028210;28;1392;-70
2022/05/04 07:29:21;;;;;;;;;;;;;;;;;;5029403;28;1169;-71
2022/05/04 07:31:47;;;;;;;;;;;;;;;;;;5029569;28;1182;-70
2022/05/04 07:34:14;;;;;;;;;;;;;;;;;;5027949;28;1926;-70
2022/05/04 07:36:40;;;;;;;;;;;;;;;;;;5030166;28;1454;-71
2022/05/04 07:39:07;;;;;;;;;;;;;;;;;;5031326;28;1512;-71
2022/05/04 07:44:20;;;;;;;;;;;;;;;;;;5023859;28;1310;-71
2022/05/04 07:46:48;;;;;;;;;;;;;;;;;;5030794;28;1478;-70
2022/05/04 07:49:15;;;;;;;;;;;;;;;;;;5033513;28;1106;-70
2022/05/04 07:51:41;;;;;;;;;;;;;;;;;;5030350;28;1556;-71
2022/05/04 07:54:08;;;;;;;;;;;;;;;;;;5032669;28;1969;-71
2022/05/04 07:56:36;;;;;;;;;;;;;;;;;;5031773;28;1451;-71
2022/05/04 07:59:02;;;;;;;;;;;;;;;;;;5033246;28;1193;-68
2022/05/04 08:04:17;;;;;;;;;;;;;;;;;;5030385;28;1403;-69
2022/05/04 08:06:44;;;;;;;;;;;;;;;;;;5028874;28;1445;-71
2022/05/04 08:09:10;;;;;;;;;;;;;;;;;;5044228;22;3765;-71
2022/05/04 08:11:38;;;;;;;;;;;;;;;;;;5027084;28;1585;-74
2022/05/04 08:14:04;;;;;;;;;;;;;;;;;;5030621;28;1906;-74
2022/05/04 08:16:30;;;;;;;;;;;;;;;;;;5031712;28;1399;-74
2022/05/04 08:18:56;;;;;;;;;;;;;;;;;;5021299;28;1472;-74
2022/05/04 08:21:24;;;;;;;;;;;;;;;;;;5010418;28;1424;-72
2022/05/04 08:23:50;;;;;;;;;;;;;;;;;;5012492;28;1163;-73
2022/05/04 08:26:16;;;;;;;;;;;;;;;;;;5007671;28;1996;-73
2022/05/04 08:28:44;;;;;;;;;;;;;;;;;;5011958;28;1420;-73
2022/05/04 08:31:10;;;;;;;;;;;;;;;;;;5012112;28;1171;-73
2022/05/04 08:33:36;;;;;;;;;;;;;;;;;;5010211;28;1910;-72
2022/05/04 08:36:02;;;;;;;;;;;;;;;;;;5012332;28;1178;-72
2022/05/04 08:38:29;;;;;;;;;;;;;;;;;;5008935;28;1720;-71
2022/05/04 08:40:56;;;;;;;;;;;;;;;;;;5010524;28;1444;-73
2022/05/04 08:43:24;;;;;;;;;;;;;;;;;;5011716;28;1052;-73
2022/05/04 08:45:52;;;;;;;;;;;;;;;;;;5010251;28;1396;-73
2022/05/04 08:48:18;;;;;;;;;;;;;;;;;;5008987;28;1508;-74
2022/05/04 08:50:44;;;;;;;;;;;;;;;;;;5009658;28;1424;-73
2022/05/04 08:53:10;;;;;;;;;;;;;;;;;;5010232;28;1914;-73
2022/05/04 08:55:37;;;;;;;;;;;;;;;;;;5011851;28;982;-73
2022/05/04 08:58:04;;;;;;;;;;;;;;;;;;5010728;28;1429;-72
2022/05/04 09:00:30;;;;;;;;;;;;;;;;;;5011286;28;1258;-72
2022/05/04 09:02:57;;;;;;;;;;;;;;;;;;5010403;28;1429;-71
2022/05/04 09:05:24;;;;;;;;;;;;;;;;;;5011577;28;1690;-73
2022/05/04 09:07:51;;;;;;;;;;;;;;;;;;5010980;28;1385;-71
2022/05/04 09:10:18;;;;;;;;;;;;;;;;;;5024204;28;1704;-72
2022/05/04 09:12:44;;;;;;;;;;;;;;;;;;5007760;28;1629;-72
2022/05/04 09:15:17;;;;;;;;;;;;;;;;;;5011420;28;1922;-71
2022/05/04 09:17:43;;;;;;;;;;;;;;;;;;5010567;28;1357;-72
2022/05/04 09:22:55;;;;;;;;;;;;;;;;;;5009206;28;1487;-73
2022/05/04 09:25:23;;;;;;;;;;;;;;;;;;5008426;28;1385;-72
2022/05/04 09:27:49;;;;;;;;;;;;;;;;;;5010297;28;1840;-73
2022/05/04 09:30:16;;;;;;;;;;;;;;;;;;5011522;28;1063;-74
2022/05/04 09:32:43;;;;;;;;;;;;;;;;;;5010139;28;1396;-72
2022/05/04 09:35:13;;;;;;;;;;;;;;;;;;5011335;28;1922;-72
2022/05/04 09:45:52;;;;;;;;;;;;;;;;;;5011248;28;1262;-74
2022/05/04 09:48:27;;;;;;;;;;;;;;;;;;5008635;28;1444;-73
2022/05/04 09:50:57;;;;;;;;;;;;;;;;;;5009428;28;1467;-73
2022/05/04 09:53:26;;;;;;;;;;;;;;;;;;5009878;28;1915;-73
2022/05/04 09:55:52;;;;;;;;;;;;;;;;;;5008046;28;1534;-70
2022/05/04 09:58:19;;;;;;;;;;;;;;;;;;5010569;28;1423;-73
2022/05/04 10:00:45;;;;;;;;;;;;;;;;;;5008659;28;1377;-72
2022/05/04 10:03:12;;;;;;;;;;;;;;;;;;5010797;28;1158;-71
2022/05/04 10:05:38;;;;;;;;;;;;;;;;;;5008428;28;1448;-73
2022/05/04 10:08:06;;;;;;;;;;;;;;;;;;5010067;28;1412;-74
2022/05/04 10:10:32;;;;;;;;;;;;;;;;;;5010377;28;1064;-74
2022/05/04 10:12:58;;;;;;;;;;;;;;;;;;5009744;28;1385;-72
2022/05/04 10:15:25;;;;;;;;;;;;;;;;;;5005449;28;1977;-72
2022/05/04 10:17:52;;;;;;;;;;;;;;;;;;5007846;28;1746;-74
2022/05/04 10:20:19;;;;;;;;;;;;;;;;;;5010601;28;1123;-72
2022/05/04 10:22:48;;;;;;;;;;;;;;;;;;5010335;28;1095;-72
2022/05/04 10:25:16;;;;;;;;;;;;;;;;;;5007873;28;1436;-71
2022/05/04 10:27:43;;;;;;;;;;;;;;;;;;5007775;28;2504;-73
2022/05/04 10:32:57;;;;;;;;;;;;;;;;;;5009243;28;973;-73
2022/05/04 10:35:28;;;;;;;;;;;;;;;;;;5008250;28;1973;-73
2022/05/04 10:38:04;;;;;;;;;;;;;;;;;;5007989;28;1461;-74
2022/05/04 10:40:32;;;;;;;;;;;;;;;;;;5008125;28;972;-73
2022/05/04 10:42:59;;;;;;;;;;;;;;;;;;5010258;28;957;-73
2022/05/04 10:45:29;;;;;;;;;;;;;;;;;;5009974;28;1056;-73
2022/05/04 10:47:59;;;;;;;;;;;;;;;;;;5007773;28;1512;-73
2022/05/04 10:50:25;;;;;;;;;;;;;;;;;;5009816;28;2124;-73
2022/05/04 10:52:52;;;;;;;;;;;;;;;;;;5009928;28;1014;-72
2022/05/04 10:55:18;;;;;;;;;;;;;;;;;;5008641;28;1969;-74
2022/05/04 10:57:45;;;;;;;;;;;;;;;;;;5009104;28;1372;-70
2022/05/04 11:00:12;;;;;;;;;;;;;;;;;;5009820;28;1308;-73
2022/05/04 11:02:42;;;;;;;;;;;;;;;;;;5009791;28;1075;-73
2022/05/04 11:05:12;;;;;;;;;;;;;;;;;;5008384;28;999;-73
2022/05/04 11:07:38;;;;;;;;;;;;;;;;;;5007125;28;1381;-71
2022/05/04 11:10:05;;;;;;;;;;;;;;;;;;5009181;28;1080;-73
2022/05/04 11:12:31;;;;;;;;;;;;;;;;;;5013177;28;1052;-73
2022/05/04 11:14:59;;;;;;;;;;;;;;;;;;5014130;28;1969;-73
2022/05/04 11:17:25;;;;;;;;;;;;;;;;;;5013676;28;1071;-74
2022/05/04 11:19:51;;;;;;;;;;;;;;;;;;5013969;28;1409;-73
2022/05/04 11:22:18;;;;;;;;;;;;;;;;;;5013828;28;902;-74
2022/05/04 11:24:44;;;;;;;;;;;;;;;;;;5013820;28;1036;-71
2022/05/04 11:27:11;;;;;;;;;;;;;;;;;;5010185;28;1440;-73
2022/05/04 11:29:37;;;;;;;;;;;;;;;;;;5012632;28;1448;-72
2022/05/04 11:32:06;;;;;;;;;;;;;;;;;;5012335;28;1391;-72
2022/05/04 11:34:33;;;;;;;;;;;;;;;;;;5013460;28;1915;-72
2022/05/04 11:37:04;;;;;;;;;;;;;;;;;;5013549;28;909;-72
2022/05/04 11:39:30;;;;;;;;;;;;;;;;;;5013602;28;1371;-73
2022/05/04 11:41:57;;;;;;;;;;;;;;;;;;5012685;28;1305;-73
2022/05/04 11:44:25;;;;;;;;;;;;;;;;;;5012376;28;1440;-72
2022/05/04 11:46:51;;;;;;;;;;;;;;;;;;5011496;28;1422;-74
2022/05/04 11:49:20;;;;;;;;;;;;;;;;;;5009727;28;1451;-74
2022/05/04 11:51:46;;;;;;;;;;;;;;;;;;5011976;28;1544;-74
2022/05/04 11:54:13;;;;;;;;;;;;;;;;;;5013267;28;1914;-74
2022/05/04 11:56:39;;;;;;;;;;;;;;;;;;5012904;28;998;-74
2022/05/04 11:59:07;;;;;;;;;;;;;;;;;;5012999;28;1396;-73
2022/05/04 12:01:33;;;;;;;;;;;;;;;;;;5010024;28;1602;-74
2022/05/04 12:03:59;;;;;;;;;;;;;;;;;;5011001;28;1375;-74
2022/05/04 12:06:27;;;;;;;;;;;;;;;;;;5011234;28;1730;-74
2022/05/04 12:08:54;;;;;;;;;;;;;;;;;;5011071;28;1784;-74
2022/05/04 12:11:20;;;;;;;;;;;;;;;;;;5011708;28;1274;-72
2022/05/04 12:13:46;;;;;;;;;;;;;;;;;;5010853;28;1555;-73
2022/05/04 12:16:13;;;;;;;;;;;;;;;;;;5015723;28;1914;-72
2022/05/04 12:18:39;;;;;;;;;;;;;;;;;;5012671;28;1439;-75
2022/05/04 12:21:06;;;;;;;;;;;;;;;;;;5011130;28;1219;-71
2022/05/04 12:23:34;;;;;;;;;;;;;;;;;;5011168;28;1104;-74
2022/05/04 12:26:01;;;;;;;;;;;;;;;;;;5012782;28;1067;-74
2022/05/04 12:28:27;;;;;;;;;;;;;;;;;;5011014;28;1483;-74
2022/05/04 12:33:38;;;;;;;;;;;;;;;;;;5011829;28;1259;-74
2022/05/04 12:36:07;;;;;;;;;;;;;;;;;;5007789;28;1922;-73
2022/05/04 12:38:35;;;;;;;;;;;;;;;;;;5008476;28;1919;-73
2022/05/04 12:41:01;;;;;;;;;;;;;;;;;;5009577;28;1653;-75
2022/05/04 12:43:30;;;;;;;;;;;;;;;;;;5011951;28;1771;-75
2022/05/04 12:45:56;;;;;;;;;;;;;;;;;;5010342;28;1737;-74
2022/05/04 12:48:24;;;;;;;;;;;;;;;;;;5015492;28;1831;-75
2022/05/04 12:50:51;;;;;;;;;;;;;;;;;;5009463;28;1629;-74
2022/05/04 12:53:17;;;;;;;;;;;;;;;;;;5011200;28;1526;-75
2022/05/04 12:58:28;;;;;;;;;;;;;;;;;;5006925;28;1452;-74
2022/05/04 13:00:55;;;;;;;;;;;;;;;;;;5010808;28;1831;-74
2022/05/04 13:03:22;;;;;;;;;;;;;;;;;;5012141;28;1218;-74
2022/05/04 13:05:48;;;;;;;;;;;;;;;;;;5011923;28;1115;-74
2022/05/04 13:08:14;;;;;;;;;;;;;;;;;;5010808;28;1685;-73
2022/05/04 13:10:40;;;;;;;;;;;;;;;;;;5009320;28;1589;-74
2022/05/04 13:13:08;;;;;;;;;;;;;;;;;;5009516;28;1479;-74
2022/05/04 13:15:34;;;;;;;;;;;;;;;;;;5011696;28;1918;-73
2022/05/04 13:18:00;;;;;;;;;;;;;;;;;;5008540;28;1819;-74
2022/05/04 13:20:28;;;;;;;;;;;;;;;;;;5011538;28;1134;-73
2022/05/04 13:22:54;;;;;;;;;;;;;;;;;;5010635;28;1503;-74
2022/05/04 13:25:20;;;;;;;;;;;;;;;;;;5011618;28;965;-74
2022/05/04 13:27:47;;;;;;;;;;;;;;;;;;5010911;28;1490;-74
2022/05/04 13:30:14;;;;;;;;;;;;;;;;;;5011935;28;1056;-74
2022/05/04 13:32:40;;;;;;;;;;;;;;;;;;5008956;28;1823;-75
2022/05/04 13:35:07;;;;;;;;;;;;;;;;;;4994032;28;1914;-74
2022/05/04 13:37:33;;;;;;;;;;;;;;;;;;5008859;28;1757;-75
2022/05/04 13:39:59;;;;;;;;;;;;;;;;;;5010084;28;1256;-75
2022/05/04 13:42:25;;;;;;;;;;;;;;;;;;5008437;28;1479;-74
2022/05/04 13:44:51;;;;;;;;;;;;;;;;;;5009782;28;1190;-74
2022/05/04 13:47:19;;;;;;;;;;;;;;;;;;5016369;28;1594;-74
2022/05/04 13:49:45;;;;;;;;;;;;;;;;;;5030652;28;1298;-72
2022/05/04 13:54:56;;;;;;;;;;;;;;;;;;5008727;28;1926;-73
2022/05/04 13:57:22;;;;;;;;;;;;;;;;;;5009339;28;1228;-72
2022/05/04 13:59:48;;;;;;;;;;;;;;;;;;5009206;28;1370;-72
2022/05/04 14:02:15;;;;;;;;;;;;;;;;;;5010961;28;1051;-72
2022/05/04 14:04:42;;;;;;;;;;;;;;;;;;5007073;28;1673;-71
2022/05/04 14:07:08;;;;;;;;;;;;;;;;;;5006091;28;1518;-73
2022/05/04 14:09:35;;;;;;;;;;;;;;;;;;5010224;28;1570;-72
2022/05/04 14:12:01;;;;;;;;;;;;;;;;;;5010756;28;1253;-72
2022/05/04 14:17:11;;;;;;;;;;;;;;;;;;5010016;28;1064;-72
2022/05/04 14:19:37;;;;;;;;;;;;;;;;;;5010572;28;1278;-73
2022/05/04 14:24:41;;;;;;;;;;;;;;;;;;5006562;28;1655;-73
2022/05/04 14:27:08;;;;;;;;;;;;;;;;;;5000656;28;1099;-72
2022/05/04 14:29:34;;;;;;;;;;;;;;;;;;5002343;28;1743;-70
2022/05/04 14:32:00;;;;;;;;;;;;;;;;;;5009463;28;2001;-72
2022/05/04 14:34:28;;;;;;;;;;;;;;;;;;5007770;28;1416;-73
2022/05/04 14:36:55;;;;;;;;;;;;;;;;;;5012988;28;1912;-72
2022/05/04 14:39:22;;;;;;;;;;;;;;;;;;5006824;28;1393;-72
2022/05/04 14:41:49;;;;;;;;;;;;;;;;;;5006765;28;1444;-72
2022/05/04 14:44:15;;;;;;;;;;;;;;;;;;5006670;28;1645;-73
2022/05/04 14:46:42;;;;;;;;;;;;;;;;;;5009937;28;1173;-73
2022/05/04 14:49:08;;;;;;;;;;;;;;;;;;5010629;28;1194;-73
2022/05/04 14:51:36;;;;;;;;;;;;;;;;;;5006245;28;1594;-72
2022/05/04 14:54:02;;;;;;;;;;;;;;;;;;5004605;28;1560;-71
2022/05/04 14:56:28;;;;;;;;;;;;;;;;;;5007969;28;2009;-71
2022/05/04 14:58:56;;;;;;;;;;;;;;;;;;5005223;28;1436;-71
2022/05/04 15:01:22;;;;;;;;;;;;;;;;;;5005905;28;1440;-72
2022/05/04 15:06:32;;;;;;;;;;;;;;;;;;5002933;28;1417;-72
2022/05/04 15:08:58;;;;;;;;;;;;;;;;;;5009085;28;1393;-72
2022/05/04 15:11:25;;;;;;;;;;;;;;;;;;5008912;28;1448;-72
2022/05/04 15:13:51;;;;;;;;;;;;;;;;;;5008596;28;1464;-73
2022/05/04 15:16:19;;;;;;;;;;;;;;;;;;5009369;28;1928;-73
2022/05/04 15:18:45;;;;;;;;;;;;;;;;;;5008825;28;1421;-73
2022/05/04 15:21:12;;;;;;;;;;;;;;;;;;5007971;28;1411;-73
2022/05/04 15:23:39;;;;;;;;;;;;;;;;;;5008088;28;1385;-72
2022/05/04 15:26:05;;;;;;;;;;;;;;;;;;5008118;28;1467;-71
2022/05/04 15:28:32;;;;;;;;;;;;;;;;;;5004241;28;1393;-70
2022/05/04 15:30:58;;;;;;;;;;;;;;;;;;5007673;28;1420;-73
2022/05/04 15:33:25;;;;;;;;;;;;;;;;;;5002408;28;1469;-73
2022/05/04 15:35:52;;;;;;;;;;;;;;;;;;5007412;28;1922;-70
2022/05/04 15:38:18;;;;;;;;;;;;;;;;;;5007436;28;1464;-73
2022/05/04 15:40:44;;;;;;;;;;;;;;;;;;5005805;28;1408;-72
2022/05/04 15:43:11;;;;;;;;;;;;;;;;;;5008681;28;1621;-71
2022/05/04 15:45:37;;;;;;;;;;;;;;;;;;5008182;28;1373;-72
2022/05/04 15:48:03;;;;;;;;;;;;;;;;;;5001903;28;1476;-73
2022/05/04 15:50:30;;;;;;;;;;;;;;;;;;5005788;28;1410;-71
2022/05/04 15:52:57;;;;;;;;;;;;;;;;;;5006459;28;1516;-72
2022/05/04 15:55:23;;;;;;;;;;;;;;;;;;5007568;28;1914;-70
2022/05/04 15:57:49;;;;;;;;;;;;;;;;;;5008507;28;1611;-71
2022/05/04 16:00:16;;;;;;;;;;;;;;;;;;5005290;28;1437;-68
2022/05/04 16:05:26;;;;;;;;;;;;;;;;;;5013347;28;985;-70
2022/05/04 16:07:54;;;;;;;;;;;;;;;;;;5013267;28;965;-70
2022/05/04 16:10:20;;;;;;;;;;;;;;;;;;5013390;28;1028;-69
2022/05/04 16:12:46;;;;;;;;;;;;;;;;;;5012187;28;1416;-70
2022/05/04 16:15:12;;;;;;;;;;;;;;;;;;5013545;28;1059;-70
2022/05/04 16:23:08;;;;;;;;;;;;;;;;;;5011549;28;1300;-70
2022/05/04 16:25:34;;;;;;;;;;;;;;;;;;5013103;28;1068;-70
2022/05/04 16:28:00;;;;;;;;;;;;;;;;;;5012899;28;1071;-71
2022/05/04 16:30:26;;;;;;;;;;;;;;;;;;5013083;28;1111;-71
2022/05/04 16:32:52;;;;;;;;;;;;;;;;;;5011837;28;1345;-71
2022/05/04 16:35:19;;;;;;;;;;;;;;;;;;5013172;28;1001;-72
2022/05/04 16:37:45;;;;;;;;;;;;;;;;;;5012688;28;1911;-71
2022/05/04 16:40:14;;;;;;;;;;;;;;;;;;5011871;28;1338;-71
2022/05/04 16:42:40;;;;;;;;;;;;;;;;;;5013236;28;1404;-71
2022/05/04 16:45:07;;;;;;;;;;;;;;;;;;5007631;28;1547;-69
2022/05/04 16:47:33;;;;;;;;;;;;;;;;;;5011982;28;1355;-71
2022/05/04 16:49:59;;;;;;;;;;;;;;;;;;5009400;28;1343;-71
2022/05/04 16:52:26;;;;;;;;;;;;;;;;;;5011037;28;1555;-71
2022/05/04 16:54:52;;;;;;;;;;;;;;;;;;5012594;28;1174;-70
2022/05/04 16:57:19;;;;;;;;;;;;;;;;;;5012279;28;1914;-70
2022/05/04 16:59:46;;;;;;;;;;;;;;;;;;5011102;28;1368;-71
2022/05/04 17:02:12;;;;;;;;;;;;;;;;;;5011076;28;1386;-71
2022/05/04 17:04:38;;;;;;;;;;;;;;;;;;5010286;28;1363;-70
2022/05/04 17:07:04;;;;;;;;;;;;;;;;;;5009715;28;1371;-71
2022/05/04 17:09:30;;;;;;;;;;;;;;;;;;5011999;28;1214;-70
2022/05/04 17:11:57;;;;;;;;;;;;;;;;;;5012234;28;1123;-71
2022/05/04 17:14:24;;;;;;;;;;;;;;;;;;5011230;28;1456;-70
2022/05/04 17:16:50;;;;;;;;;;;;;;;;;;5011074;28;1914;-71
2022/05/04 17:19:17;;;;;;;;;;;;;;;;;;5012409;28;1134;-70
2022/05/04 17:21:43;;;;;;;;;;;;;;;;;;5010864;28;1292;-71
2022/05/04 17:24:10;;;;;;;;;;;;;;;;;;5012060;28;1450;-71
2022/05/04 17:26:36;;;;;;;;;;;;;;;;;;5007878;28;1463;-70
2022/05/04 17:29:04;;;;;;;;;;;;;;;;;;5004933;28;1501;-71
2022/05/04 17:31:31;;;;;;;;;;;;;;;;;;5003804;28;1350;-70
2022/05/04 17:36:45;;;;;;;;;;;;;;;;;;5008686;28;1918;-68
2022/05/04 17:39:11;;;;;;;;;;;;;;;;;;5007658;28;1451;-70
2022/05/04 17:41:37;;;;;;;;;;;;;;;;;;5008848;28;1422;-69
2022/05/04 17:44:04;;;;;;;;;;;;;;;;;;5009144;28;1526;-70
2022/05/04 17:46:32;;;;;;;;;;;;;;;;;;5006236;28;1384;-70
2022/05/04 17:48:58;;;;;;;;;;;;;;;;;;5006598;28;1145;-71
2022/05/04 17:51:24;;;;;;;;;;;;;;;;;;5008916;28;1522;-70
2022/05/04 17:53:50;;;;;;;;;;;;;;;;;;5006928;28;1535;-70
2022/05/04 17:56:17;;;;;;;;;;;;;;;;;;5008809;28;1914;-70
2022/05/04 17:58:43;;;;;;;;;;;;;;;;;;5009194;28;1376;-70
2022/05/04 18:01:11;;;;;;;;;;;;;;;;;;5002504;28;1456;-69
2022/05/04 18:03:38;;;;;;;;;;;;;;;;;;5007264;28;1496;-70
2022/05/04 18:06:05;;;;;;;;;;;;;;;;;;5007522;28;1389;-69